createdAt,value
2023-04-01T00:00:17.323Z,9.70
2023-04-01T00:02:47.122Z,9.70
2023-04-01T00:05:17.738Z,9.70
2023-04-01T00:07:46.722Z,9.80
2023-04-01T00:10:18.725Z,9.70
2023-04-01T00:12:49.060Z,9.70
2023-04-01T00:15:17.278Z,9.60
2023-04-01T00:17:50.227Z,9.70
2023-04-01T00:20:18.936Z,9.60
2023-04-01T00:22:47.023Z,9.70
2023-04-01T00:25:16.515Z,9.80
2023-04-01T00:27:45.356Z,9.70
2023-04-01T00:30:15.586Z,9.70
2023-04-01T00:32:44.516Z,9.70
2023-04-01T00:35:13.405Z,9.70
2023-04-01T00:37:48.764Z,9.70
2023-04-01T00:40:27.159Z,9.80
2023-04-01T00:42:56.677Z,9.70
2023-04-01T00:45:41.707Z,9.70
2023-04-01T00:48:14.494Z,9.70
2023-04-01T00:50:47.052Z,9.60
2023-04-01T00:53:15.752Z,9.70
2023-04-01T00:55:48.369Z,9.60
2023-04-01T00:58:21.004Z,9.60
2023-04-01T01:00:54.338Z,9.70
2023-04-01T01:03:22.380Z,9.60
2023-04-01T01:06:10.845Z,9.60
2023-04-01T01:09:08.617Z,9.40
2023-04-01T01:11:46.373Z,9.60
2023-04-01T01:14:31.481Z,9.60
2023-04-01T01:17:18.430Z,9.70
2023-04-01T01:20:15.620Z,9.50
2023-04-01T01:23:17.325Z,9.50
2023-04-01T01:25:59.706Z,9.60
2023-04-01T01:28:40.390Z,9.50
2023-04-01T01:31:18.463Z,9.50
2023-04-01T01:33:59.215Z,9.50
2023-04-01T01:36:32.578Z,9.50
2023-04-01T01:39:02.166Z,9.50
2023-04-01T01:41:31.519Z,9.50
2023-04-01T01:44:01.898Z,9.50
2023-04-01T01:46:32.611Z,9.60
2023-04-01T01:49:02.597Z,9.60
2023-04-01T01:51:33.281Z,9.60
2023-04-01T01:54:04.533Z,9.60
2023-04-01T01:56:34.286Z,9.40
2023-04-01T01:59:10.547Z,9.60
2023-04-01T02:01:42.578Z,9.50
2023-04-01T02:04:12.505Z,9.50
2023-04-01T02:06:56.506Z,9.40
2023-04-01T02:09:25.245Z,9.50
2023-04-01T02:11:56.646Z,9.40
2023-04-01T02:14:28.564Z,9.50
2023-04-01T02:16:59.882Z,9.50
2023-04-01T02:19:36.402Z,9.40
2023-04-01T02:22:09.883Z,9.40
2023-04-01T02:24:39.689Z,9.60
2023-04-01T02:27:07.913Z,9.40
2023-04-01T02:29:36.132Z,9.50
2023-04-01T02:32:06.282Z,9.50
2023-04-01T02:34:35.323Z,9.30
2023-04-01T02:37:04.420Z,9.50
2023-04-01T02:39:34.319Z,9.50
2023-04-01T02:42:02.409Z,9.30
2023-04-01T02:44:31.304Z,9.50
2023-04-01T02:47:07.549Z,9.30
2023-04-01T02:49:35.766Z,9.50
2023-04-01T02:52:07.156Z,9.40
2023-04-01T02:54:50.835Z,9.40
2023-04-01T02:57:19.800Z,9.50
2023-04-01T02:59:48.279Z,9.50
2023-04-01T03:02:17.882Z,9.30
2023-04-01T03:04:46.685Z,9.30
2023-04-01T03:07:15.076Z,9.40
2023-04-01T03:09:44.608Z,9.40
2023-04-01T03:12:13.054Z,9.40
2023-04-01T03:14:41.223Z,9.40
2023-04-01T03:17:10.125Z,9.40
2023-04-01T03:19:38.265Z,9.50
2023-04-01T03:22:08.005Z,9.50
2023-04-01T03:24:36.201Z,9.40
2023-04-01T03:27:06.527Z,9.50
2023-04-01T03:29:34.499Z,9.50
2023-04-01T03:32:02.510Z,9.40
2023-04-01T03:34:30.951Z,9.50
2023-04-01T03:37:03.240Z,9.60
2023-04-01T03:39:32.671Z,9.40
2023-04-01T03:42:01.787Z,9.50
2023-04-01T03:44:36.420Z,9.50
2023-04-01T03:47:04.452Z,9.60
2023-04-01T03:49:33.107Z,9.50
2023-04-01T03:52:03.558Z,9.50
2023-04-01T03:54:33.280Z,9.50
2023-04-01T03:57:01.508Z,9.50
2023-04-01T03:59:30.025Z,9.50
2023-04-01T04:02:00.899Z,9.30
2023-04-01T04:04:30.086Z,9.50
2023-04-01T04:06:58.917Z,9.50
2023-04-01T04:09:33.757Z,9.60
2023-04-01T04:12:03.618Z,9.40
2023-04-01T04:14:31.731Z,9.50
2023-04-01T04:17:00.989Z,9.60
2023-04-01T04:19:29.776Z,9.60
2023-04-01T04:21:57.902Z,9.50
2023-04-01T04:24:26.473Z,9.60
2023-04-01T04:26:55.621Z,9.60
2023-04-01T04:29:24.495Z,9.50
2023-04-01T04:31:52.889Z,9.60
2023-04-01T04:34:24.654Z,9.50
2023-04-01T04:36:56.413Z,9.50
2023-04-01T04:39:24.346Z,9.50
2023-04-01T04:41:53.077Z,9.60
2023-04-01T04:44:22.913Z,9.60
2023-04-01T04:46:52.317Z,9.60
2023-04-01T04:49:22.692Z,9.60
2023-04-01T04:51:53.282Z,9.60
2023-04-01T04:54:22.755Z,9.60
2023-04-01T04:56:56.734Z,9.60
2023-04-01T04:59:24.934Z,9.60
2023-04-01T05:01:53.020Z,9.80
2023-04-01T05:04:21.557Z,9.60
2023-04-01T05:06:54.230Z,9.60
2023-04-01T05:09:25.714Z,9.70
2023-04-01T05:11:54.344Z,9.50
2023-04-01T05:14:24.702Z,9.60
2023-04-01T05:19:38.236Z,9.60
2023-04-01T05:22:10.262Z,9.60
2023-04-01T05:24:38.861Z,9.70
2023-04-01T05:27:06.904Z,9.60
2023-04-01T05:29:36.200Z,9.70
2023-04-01T05:32:04.794Z,9.60
2023-04-01T05:34:33.027Z,9.60
2023-04-01T05:37:01.713Z,9.60
2023-04-01T05:39:31.516Z,9.70
2023-04-01T05:42:03.046Z,9.50
2023-04-01T05:44:31.070Z,9.70
2023-04-01T05:46:59.135Z,9.70
2023-04-01T05:49:29.600Z,9.70
2023-04-01T05:51:58.026Z,9.60
2023-04-01T05:54:26.086Z,9.60
2023-04-01T05:56:58.333Z,9.60
2023-04-01T05:59:26.652Z,9.60
2023-04-01T06:01:55.416Z,9.80
2023-04-01T06:04:27.251Z,9.60
2023-04-01T06:06:55.460Z,9.80
2023-04-01T06:09:31.341Z,9.80
2023-04-01T06:12:31.486Z,9.80
2023-04-01T06:15:15.794Z,9.80
2023-04-01T06:17:58.777Z,9.80
2023-04-01T06:20:34.844Z,9.90
2023-04-01T06:23:33.721Z,9.90
2023-04-01T06:26:17.977Z,9.90
2023-04-01T06:29:20.914Z,10.00
2023-04-01T06:32:16.931Z,10.00
2023-04-01T06:35:10.393Z,10.00
2023-04-01T06:37:58.482Z,10.10
2023-04-01T06:41:14.095Z,10.10
2023-04-01T06:43:54.231Z,10.30
2023-04-01T06:46:37.586Z,10.30
2023-04-01T06:49:23.950Z,10.20
2023-04-01T06:52:00.735Z,10.30
2023-04-01T06:54:34.864Z,10.30
2023-04-01T06:57:08.489Z,10.30
2023-04-01T06:59:40.012Z,10.40
2023-04-01T07:02:25.976Z,10.40
2023-04-01T07:04:59.258Z,10.70
2023-04-01T07:07:42.427Z,10.70
2023-04-01T07:10:16.614Z,10.70
2023-04-01T07:12:49.009Z,10.70
2023-04-01T07:15:22.616Z,10.80
2023-04-01T07:20:50.444Z,11.00
2023-04-01T07:23:26.026Z,11.00
2023-04-01T07:25:58.567Z,11.10
2023-04-01T07:28:31.793Z,11.00
2023-04-01T07:31:10.373Z,11.00
2023-04-01T07:33:43.568Z,11.00
2023-04-01T07:36:22.618Z,11.00
2023-04-01T07:39:05.580Z,11.10
2023-04-01T07:41:45.234Z,11.30
2023-04-01T07:44:19.195Z,11.30
2023-04-01T07:47:02.367Z,11.30
2023-04-01T07:49:36.918Z,11.60
2023-04-01T07:52:15.051Z,11.60
2023-04-01T07:54:51.912Z,11.70
2023-04-01T07:57:25.652Z,11.80
2023-04-01T08:00:02.788Z,12.00
2023-04-01T08:02:44.792Z,12.10
2023-04-01T08:05:24.686Z,12.20
2023-04-01T08:08:02.822Z,12.30
2023-04-01T08:10:35.524Z,12.30
2023-04-01T08:13:18.948Z,12.20
2023-04-01T08:15:58.465Z,12.20
2023-04-01T08:18:37.518Z,12.00
2023-04-01T08:21:11.664Z,12.00
2023-04-01T08:23:46.672Z,12.10
2023-04-01T08:26:20.618Z,12.30
2023-04-01T08:28:53.823Z,12.50
2023-04-01T08:31:28.867Z,12.60
2023-04-01T08:33:59.476Z,12.70
2023-04-01T08:36:33.425Z,12.60
2023-04-01T08:39:10.622Z,12.70
2023-04-01T08:42:07.593Z,12.60
2023-04-01T08:45:02.362Z,12.50
2023-04-01T08:47:56.481Z,12.70
2023-04-01T08:50:53.757Z,12.90
2023-04-01T08:53:31.130Z,13.10
2023-04-01T08:56:14.045Z,13.20
2023-04-01T08:59:06.602Z,13.30
2023-04-01T09:02:01.363Z,13.50
2023-04-01T09:04:44.088Z,13.60
2023-04-01T09:07:30.590Z,13.70
2023-04-01T09:10:26.858Z,13.50
2023-04-01T09:13:17.054Z,13.40
2023-04-01T09:16:04.020Z,13.50
2023-04-01T09:18:58.426Z,13.60
2023-04-01T09:21:49.294Z,13.60
2023-04-01T09:24:43.076Z,13.80
2023-04-01T09:27:21.733Z,14.10
2023-04-01T09:30:09.140Z,14.30
2023-04-01T09:32:54.368Z,14.40
2023-04-01T09:35:26.622Z,14.40
2023-04-01T09:38:00.562Z,14.30
2023-04-01T09:40:40.326Z,14.30
2023-04-01T09:43:27.473Z,14.20
2023-04-01T09:46:15.286Z,14.20
2023-04-01T09:48:57.088Z,14.20
2023-04-01T09:51:33.227Z,14.20
2023-04-01T09:54:13.805Z,14.10
2023-04-01T09:57:37.038Z,13.90
2023-04-01T10:00:30.437Z,13.70
2023-04-01T10:03:45.737Z,13.80
2023-04-01T10:06:52.013Z,13.90
2023-04-01T10:09:50.720Z,13.90
2023-04-01T10:13:05.711Z,14.40
2023-04-01T10:16:17.600Z,14.60
2023-04-01T10:19:14.876Z,14.70
2023-04-01T10:22:04.147Z,14.70
2023-04-01T10:25:06.318Z,14.50
2023-04-01T10:28:03.147Z,14.00
2023-04-01T10:31:06.499Z,14.00
2023-04-01T10:34:25.007Z,14.10
2023-04-01T10:36:59.297Z,14.10
2023-04-01T10:40:04.008Z,14.00
2023-04-01T10:43:05.480Z,14.20
2023-04-01T10:46:10.596Z,14.30
2023-04-01T10:49:12.914Z,14.10
2023-04-01T10:52:20.123Z,14.00
2023-04-01T10:54:55.246Z,13.90
2023-04-01T10:58:02.229Z,13.70
2023-04-01T11:01:07.792Z,13.80
2023-04-01T11:04:09.098Z,13.80
2023-04-01T11:07:15.041Z,13.80
2023-04-01T11:10:11.173Z,13.80
2023-04-01T11:13:08.334Z,13.80
2023-04-01T11:16:13.140Z,13.60
2023-04-01T11:19:17.664Z,13.40
2023-04-01T11:22:07.039Z,13.30
2023-04-01T11:25:01.972Z,13.30
2023-04-01T11:27:44.589Z,13.40
2023-04-01T11:30:28.974Z,13.50
2023-04-01T11:33:03.240Z,13.60
2023-04-01T11:35:59.242Z,13.70
2023-04-01T11:38:47.662Z,13.90
2023-04-01T11:41:28.593Z,13.90
2023-04-01T11:44:19.825Z,13.90
2023-04-01T11:47:12.407Z,13.90
2023-04-01T11:49:58.001Z,13.90
2023-04-01T11:52:43.929Z,13.80
2023-04-01T11:55:27.889Z,13.60
2023-04-01T11:58:25.013Z,13.50
2023-04-01T12:01:11.414Z,13.30
2023-04-01T12:04:13.618Z,13.30
2023-04-01T12:06:50.767Z,13.20
2023-04-01T12:09:27.327Z,12.90
2023-04-01T12:12:12.979Z,12.80
2023-04-01T12:14:46.688Z,12.60
2023-04-01T12:17:30.524Z,12.50
2023-04-01T12:20:13.194Z,12.20
2023-04-01T12:22:55.254Z,12.30
2023-04-01T12:25:52.919Z,12.10
2023-04-01T12:28:27.591Z,12.10
2023-04-01T12:31:09.597Z,11.90
2023-04-01T12:33:50.479Z,12.00
2023-04-01T12:36:38.020Z,11.90
2023-04-01T12:39:41.321Z,12.00
2023-04-01T12:45:40.517Z,11.70
2023-04-01T12:49:03.316Z,11.70
2023-04-01T12:51:43.004Z,11.70
2023-04-01T12:54:36.871Z,11.70
2023-04-01T12:57:17.734Z,11.80
2023-04-01T13:00:20.007Z,11.70
2023-04-01T13:03:06.574Z,11.80
2023-04-01T13:06:08.164Z,11.60
2023-04-01T13:08:46.375Z,11.50
2023-04-01T13:11:20.384Z,11.40
2023-04-01T13:14:30.763Z,11.50
2023-04-01T13:17:09.789Z,11.80
2023-04-01T13:20:04.871Z,11.90
2023-04-01T13:22:47.606Z,12.20
2023-04-01T13:25:26.881Z,12.20
2023-04-01T13:28:05.340Z,12.50
2023-04-01T13:30:40.668Z,12.60
2023-04-01T13:33:21.702Z,12.50
2023-04-01T13:36:04.804Z,12.50
2023-04-01T13:39:12.514Z,12.60
2023-04-01T13:42:06.510Z,12.70
2023-04-01T13:44:54.425Z,12.70
2023-04-01T13:48:04.835Z,12.70
2023-04-01T13:51:00.137Z,12.80
2023-04-01T13:53:58.795Z,12.70
2023-04-01T13:56:40.674Z,12.60
2023-04-01T13:59:49.662Z,12.70
2023-04-01T14:02:55.381Z,12.80
2023-04-01T14:05:53.057Z,12.90
2023-04-01T14:08:37.014Z,12.90
2023-04-01T14:14:20.123Z,13.00
2023-04-01T14:17:07.231Z,13.00
2023-04-01T14:20:06.312Z,12.80
2023-04-01T14:22:44.002Z,12.70
2023-04-01T14:25:37.362Z,12.70
2023-04-01T14:28:14.466Z,12.40
2023-04-01T14:31:11.038Z,12.40
2023-04-01T14:33:51.656Z,12.60
2023-04-01T14:36:44.479Z,12.60
2023-04-01T14:39:36.619Z,12.70
2023-04-01T14:42:21.982Z,12.80
2023-04-01T14:45:28.300Z,12.60
2023-04-01T14:48:01.218Z,12.40
2023-04-01T14:50:32.252Z,12.50
2023-04-01T14:53:14.577Z,12.70
2023-04-01T14:55:56.928Z,12.70
2023-04-01T14:58:27.985Z,12.80
2023-04-01T15:01:16.300Z,12.70
2023-04-01T15:03:56.639Z,12.70
2023-04-01T15:06:47.946Z,12.50
2023-04-01T15:09:24.495Z,12.40
2023-04-01T15:12:07.022Z,12.20
2023-04-01T15:14:59.020Z,12.30
2023-04-01T15:18:01.486Z,12.10
2023-04-01T15:21:07.303Z,12.20
2023-04-01T15:23:46.597Z,11.90
2023-04-01T15:26:24.677Z,11.60
2023-04-01T15:29:04.063Z,11.50
2023-04-01T15:31:48.710Z,11.40
2023-04-01T15:34:37.272Z,11.20
2023-04-01T15:37:20.762Z,11.00
2023-04-01T15:40:09.149Z,10.90
2023-04-01T15:42:58.372Z,10.90
2023-04-01T15:45:40.696Z,11.00
2023-04-01T15:48:30.990Z,10.80
2023-04-01T15:51:18.502Z,10.90
2023-04-01T15:54:22.226Z,10.70
2023-04-01T15:57:07.911Z,10.70
2023-04-01T15:59:54.020Z,10.60
2023-04-01T16:02:32.437Z,10.30
2023-04-01T16:05:06.682Z,10.30
2023-04-01T16:07:57.321Z,10.40
2023-04-01T16:11:01.162Z,10.20
2023-04-01T16:13:51.187Z,10.30
2023-04-01T16:16:33.128Z,10.40
2023-04-01T16:19:16.585Z,10.40
2023-04-01T16:21:51.094Z,10.20
2023-04-01T16:24:36.378Z,10.10
2023-04-01T16:27:13.534Z,9.90
2023-04-01T16:29:49.174Z,9.90
2023-04-01T16:32:26.499Z,9.90
2023-04-01T16:35:06.767Z,9.90
2023-04-01T16:37:39.434Z,9.90
2023-04-01T16:40:25.200Z,9.80
2023-04-01T16:42:58.097Z,9.70
2023-04-01T16:45:35.215Z,9.70
2023-04-01T16:48:12.905Z,9.70
2023-04-01T16:50:59.702Z,9.60
2023-04-01T16:53:38.282Z,9.60
2023-04-01T16:56:17.037Z,9.50
2023-04-01T16:59:01.897Z,9.50
2023-04-01T17:01:34.574Z,9.60
2023-04-01T17:04:20.862Z,9.50
2023-04-01T17:06:56.692Z,9.50
2023-04-01T17:09:43.103Z,9.50
2023-04-01T17:12:19.417Z,9.40
2023-04-01T17:14:57.385Z,9.40
2023-04-01T17:17:48.389Z,9.40
2023-04-01T17:20:32.625Z,9.40
2023-04-01T17:23:05.775Z,9.30
2023-04-01T17:25:49.141Z,9.30
2023-04-01T17:31:27.978Z,9.20
2023-04-01T17:34:20.405Z,9.00
2023-04-01T17:37:01.523Z,9.00
2023-04-01T17:39:48.267Z,8.70
2023-04-01T17:42:19.628Z,8.80
2023-04-01T17:44:59.025Z,8.70
2023-04-01T17:47:46.764Z,8.50
2023-04-01T17:50:25.898Z,8.60
2023-04-01T17:53:12.109Z,8.70
2023-04-01T17:55:50.940Z,8.50
2023-04-01T17:58:23.835Z,8.80
2023-04-01T18:01:10.504Z,8.60
2023-04-01T18:04:08.996Z,8.50
2023-04-01T18:06:45.250Z,8.40
2023-04-01T18:09:25.576Z,8.40
2023-04-01T18:12:06.627Z,8.30
2023-04-01T18:15:06.858Z,8.20
2023-04-01T18:17:47.015Z,8.30
2023-04-01T18:20:36.617Z,8.20
2023-04-01T18:23:11.284Z,8.10
2023-04-01T18:25:42.805Z,8.10
2023-04-01T18:28:28.719Z,8.20
2023-04-01T18:31:02.256Z,8.10
2023-04-01T18:33:47.311Z,8.20
2023-04-01T18:36:21.761Z,8.10
2023-04-01T18:38:54.744Z,8.10
2023-04-01T18:41:34.169Z,8.00
2023-04-01T18:44:28.204Z,7.90
2023-04-01T18:47:05.886Z,7.60
2023-04-01T18:49:47.893Z,8.00
2023-04-01T18:52:27.842Z,7.80
2023-04-01T18:55:25.095Z,7.80
2023-04-01T18:57:57.494Z,7.80
2023-04-01T19:00:29.910Z,7.80
2023-04-01T19:03:03.271Z,7.70
2023-04-01T19:05:41.928Z,7.50
2023-04-01T19:08:31.495Z,7.50
2023-04-01T19:11:11.549Z,7.70
2023-04-01T19:13:53.763Z,7.60
2023-04-01T19:16:34.759Z,7.40
2023-04-01T19:19:19.879Z,7.30
2023-04-01T19:21:59.614Z,7.40
2023-04-01T19:25:02.026Z,7.30
2023-04-01T19:27:38.084Z,7.30
2023-04-01T19:30:32.403Z,7.40
2023-04-01T19:33:09.310Z,7.20
2023-04-01T19:35:45.892Z,7.20
2023-04-01T19:38:25.996Z,7.20
2023-04-01T19:41:00.315Z,7.00
2023-04-01T19:43:46.290Z,7.10
2023-04-01T19:46:22.523Z,7.00
2023-04-01T19:49:15.600Z,7.20
2023-04-01T19:51:52.445Z,6.80
2023-04-01T19:54:33.362Z,6.70
2023-04-01T19:57:12.594Z,7.00
2023-04-01T19:59:47.583Z,6.80
2023-04-01T20:02:56.681Z,6.70
2023-04-01T20:05:41.006Z,6.80
2023-04-01T20:08:16.679Z,6.70
2023-04-01T20:10:54.731Z,6.80
2023-04-01T20:13:31.013Z,6.80
2023-04-01T20:16:03.900Z,6.70
2023-04-01T20:18:49.710Z,7.00
2023-04-01T20:21:33.456Z,6.80
2023-04-01T20:24:06.520Z,6.70
2023-04-01T20:26:40.180Z,6.80
2023-04-01T20:29:31.014Z,6.60
2023-04-01T20:32:09.061Z,6.70
2023-04-01T20:35:00.649Z,6.70
2023-04-01T20:37:44.218Z,6.60
2023-04-01T20:40:36.157Z,6.50
2023-04-01T20:43:44.594Z,6.60
2023-04-01T20:46:21.252Z,6.30
2023-04-01T20:49:27.405Z,6.50
2023-04-01T20:52:00.925Z,6.50
2023-04-01T20:54:55.510Z,6.50
2023-04-01T20:57:28.368Z,6.40
2023-04-01T21:00:25.459Z,6.50
2023-04-01T21:03:12.389Z,6.50
2023-04-01T21:06:21.754Z,6.30
2023-04-01T21:09:03.988Z,6.40
2023-04-01T21:11:41.355Z,6.50
2023-04-01T21:14:34.367Z,6.40
2023-04-01T21:17:11.560Z,6.60
2023-04-01T21:19:55.202Z,6.40
2023-04-01T21:22:43.412Z,6.50
2023-04-01T21:25:29.280Z,6.30
2023-04-01T21:28:24.374Z,6.50
2023-04-01T21:31:10.791Z,6.40
2023-04-01T21:34:06.937Z,6.40
2023-04-01T21:36:47.249Z,6.40
2023-04-01T21:39:29.410Z,6.30
2023-04-01T21:42:10.519Z,6.50
2023-04-01T21:45:01.138Z,6.40
2023-04-01T21:48:02.431Z,6.40
2023-04-01T21:50:46.178Z,6.30
2023-04-01T21:53:53.546Z,6.20
2023-04-01T21:56:51.930Z,6.10
2023-04-01T21:59:56.995Z,6.10
2023-04-01T22:03:10.405Z,6.00
2023-04-01T22:05:53.015Z,6.10
2023-04-01T22:08:41.814Z,5.80
2023-04-01T22:11:22.530Z,6.00
2023-04-01T22:13:57.637Z,5.90
2023-04-01T22:16:35.253Z,6.10
2023-04-01T22:19:14.414Z,5.90
2023-04-01T22:22:09.279Z,5.80
2023-04-01T22:24:51.402Z,5.80
2023-04-01T22:27:29.643Z,5.70
2023-04-01T22:30:09.131Z,5.70
2023-04-01T22:32:44.151Z,5.70
2023-04-01T22:35:19.755Z,5.70
2023-04-01T22:38:01.075Z,5.70
2023-04-01T22:40:37.276Z,5.80
2023-04-01T22:43:10.832Z,5.80
2023-04-01T22:46:04.392Z,5.60
2023-04-01T22:48:39.327Z,5.60
2023-04-01T22:51:16.021Z,5.70
2023-04-01T22:54:00.414Z,5.50
2023-04-01T22:56:37.367Z,5.40
2023-04-01T22:59:13.618Z,5.30
2023-04-01T23:01:47.360Z,5.20
2023-04-01T23:04:23.928Z,5.40
2023-04-01T23:06:57.058Z,5.40
2023-04-01T23:09:28.349Z,5.30
2023-04-01T23:12:01.302Z,5.20
2023-04-01T23:14:45.435Z,5.10
2023-04-01T23:17:37.024Z,5.00
2023-04-01T23:20:18.407Z,5.10
2023-04-01T23:22:56.877Z,5.10
2023-04-01T23:25:38.695Z,5.00
2023-04-01T23:28:25.819Z,5.20
2023-04-01T23:30:54.755Z,5.20
2023-04-01T23:33:33.048Z,4.90
2023-04-01T23:36:06.581Z,4.90
2023-04-01T23:38:42.627Z,4.90
2023-04-01T23:41:24.041Z,4.90
2023-04-01T23:44:00.700Z,5.00
2023-04-01T23:46:31.618Z,4.90
2023-04-01T23:49:00.459Z,5.00
2023-04-01T23:51:30.286Z,4.90
2023-04-01T23:54:03.862Z,4.80
2023-04-01T23:56:40.462Z,4.90
2023-04-01T23:59:16.462Z,4.80
